CYVV

Wiarton Airport

Wiarton, , Canada
METAR CYVV 171400Z 31012G20KT 270V340 15SM OVC035 02/M04 A2985 RMK SC8 SLP120
Observed Flight Rules
Dec-17 @ 14:00 UTC (28 minutes ago) Visual Flight Rules
Wind Visibility Clouds
310° at 12 knots
 Gusting to 20 knots
15 miles
  • Overcast at 3,500' AGL
Temperatures Readings
Current 2°C / 36°F
Dewpoint -4°C / 25°F
Humidity 65%
Altimeter 29.85" Hg
Pressure 1012 hPa
Elevation 222
METAR CYVV 171400Z 31012G20KT 270V340 15SM OVC035 02/M04 A2985 RMK SC8 SLP120
Observed Flight Rules
Dec-17 @ 14:00 UTC
(28 minutes ago)
VFR
Wind Visibility
310° at 12 knots
 Gusting to 20 knots
15 miles
Clouds
  • Overcast at 3,500' AGL
Temperature Dewpoint
2°C / 36°F -4°C / 25°F
Humidity Altimeter Pressure
65% 29.85" Hg 1012 hPa